createdAt,value
2022-11-10T00:02:20.743Z,12.4
2022-11-10T00:07:56.529Z,12.4
2022-11-10T00:13:32.018Z,12.3
2022-11-10T00:19:06.832Z,12.3
2022-11-10T00:24:42.756Z,12.3
2022-11-10T00:30:17.973Z,12.3
2022-11-10T00:35:52.971Z,12.4
2022-11-10T00:41:27.806Z,12.4
2022-11-10T00:47:24.560Z,12.4
2022-11-10T00:52:58.087Z,12.3
2022-11-10T00:58:42.936Z,12.2
2022-11-10T01:04:17.828Z,12.2
2022-11-10T01:09:52.995Z,12.3
2022-11-10T01:15:28.305Z,12.3
2022-11-10T01:21:04.556Z,12.4
2022-11-10T01:26:39.570Z,12.4
2022-11-10T01:32:14.808Z,12.4
2022-11-10T01:37:49.754Z,12.4
2022-11-10T01:43:24.770Z,12.4
2022-11-10T01:49:21.733Z,12.4
2022-11-10T01:54:54.230Z,12.4
2022-11-10T02:00:29.214Z,12.4
2022-11-10T02:06:05.614Z,12.4
2022-11-10T02:11:40.511Z,12.4
2022-11-10T02:17:15.394Z,12.3
2022-11-10T02:22:50.382Z,12.4
2022-11-10T02:28:25.413Z,12.4
2022-11-10T02:34:00.396Z,12.4
2022-11-10T02:39:35.413Z,12.4
2022-11-10T02:45:10.516Z,12.4
2022-11-10T02:50:45.289Z,12.4
2022-11-10T02:56:20.343Z,12.3
2022-11-10T03:01:56.286Z,12.3
2022-11-10T03:07:32.043Z,12.3
2022-11-10T03:13:06.854Z,12.2
2022-11-10T03:18:42.657Z,12.2
2022-11-10T03:24:17.700Z,12.1
2022-11-10T03:29:52.475Z,12
2022-11-10T03:35:27.481Z,12
2022-11-10T03:41:19.595Z,11.9
2022-11-10T03:47:18.047Z,11.9
2022-11-10T03:52:50.822Z,11.9
2022-11-10T03:58:26.884Z,11.8
2022-11-10T04:04:01.657Z,11.7
2022-11-10T04:09:37.475Z,11.7
2022-11-10T04:15:12.666Z,11.7
2022-11-10T04:20:47.515Z,11.6
2022-11-10T04:26:26.539Z,11.6
2022-11-10T04:32:01.671Z,11.5
2022-11-10T04:37:36.766Z,11.5
2022-11-10T04:43:12.490Z,11.5
2022-11-10T04:49:17.933Z,11.5
2022-11-10T04:54:50.505Z,11.4
2022-11-10T05:00:26.616Z,11.4
2022-11-10T05:06:02.638Z,11.4
2022-11-10T05:11:38.418Z,11.3
2022-11-10T05:17:14.390Z,11.3
2022-11-10T05:22:50.754Z,11.2
2022-11-10T05:28:25.903Z,11.2
2022-11-10T05:34:00.725Z,11.2
2022-11-10T05:39:35.565Z,11.2
2022-11-10T05:45:10.519Z,11.1
2022-11-10T05:50:45.554Z,11.1
2022-11-10T05:56:20.211Z,11.1
2022-11-10T06:01:55.234Z,11.1
2022-11-10T06:07:29.852Z,11.1
2022-11-10T06:13:06.119Z,11
2022-11-10T06:18:40.933Z,10.9
2022-11-10T06:24:15.733Z,10.9
2022-11-10T06:29:51.516Z,10.9
2022-11-10T06:35:27.736Z,10.9
2022-11-10T06:41:02.667Z,10.8
2022-11-10T06:46:59.545Z,10.8
2022-11-10T06:52:32.476Z,10.8
2022-11-10T06:58:07.535Z,10.8
2022-11-10T07:04:05.429Z,10.8
2022-11-10T07:09:56.046Z,9.5
2022-11-10T07:15:31.018Z,9.1
2022-11-10T07:21:07.519Z,9.1
2022-11-10T07:26:43.216Z,9.2
2022-11-10T07:32:18.097Z,9.3
2022-11-10T07:37:53.136Z,9.5
2022-11-10T07:43:28.527Z,9.6
2022-11-10T07:49:24.933Z,9.7
2022-11-10T07:54:57.811Z,9.8
2022-11-10T08:00:33.228Z,10
2022-11-10T08:06:09.487Z,10.2
2022-11-10T08:11:45.682Z,10.3
2022-11-10T08:17:20.488Z,10.3
2022-11-10T08:23:03.675Z,10.5
2022-11-10T08:28:46.183Z,10.8
2022-11-10T08:34:21.441Z,11.2
2022-11-10T08:39:56.276Z,11.2
2022-11-10T08:45:32.342Z,11.4
2022-11-10T08:51:08.822Z,11.5
2022-11-10T08:56:50.559Z,11.9
2022-11-10T09:02:29.791Z,12
2022-11-10T09:08:07.050Z,12.3
2022-11-10T09:13:41.996Z,12.5
2022-11-10T09:19:19.933Z,12.8
2022-11-10T09:24:55.904Z,12.9
2022-11-10T09:30:30.895Z,13.1
2022-11-10T09:36:06.776Z,13.2
2022-11-10T09:41:41.719Z,13.5
2022-11-10T09:47:59.403Z,13.7
2022-11-10T09:53:32.522Z,14
2022-11-10T09:59:07.300Z,14.1
2022-11-10T10:04:48.905Z,14.2
2022-11-10T10:10:27.392Z,14.4
2022-11-10T10:16:02.338Z,14.6
2022-11-10T10:21:37.365Z,14.7
2022-11-10T10:27:13.480Z,14.9
2022-11-10T10:32:48.420Z,14.9
2022-11-10T10:38:23.905Z,15.2
2022-11-10T10:44:01.376Z,15.2
2022-11-10T10:49:37.601Z,15.3
2022-11-10T10:55:13.505Z,15.6
2022-11-10T11:00:48.434Z,15.7
2022-11-10T11:06:23.596Z,15.8
2022-11-10T11:11:59.410Z,16
2022-11-10T11:17:34.470Z,16.2
2022-11-10T11:23:10.615Z,16.4
2022-11-10T11:28:46.709Z,16.4
2022-11-10T11:34:21.652Z,16.6
2022-11-10T11:39:57.673Z,16.8
2022-11-10T11:45:33.277Z,16.9
2022-11-10T11:51:12.625Z,17.1
2022-11-10T11:56:47.851Z,17.3
2022-11-10T12:02:22.880Z,17.4
2022-11-10T12:07:59.452Z,17.8
2022-11-10T12:13:35.399Z,18.2
2022-11-10T12:19:10.538Z,18.5
2022-11-10T12:24:45.512Z,18.9
2022-11-10T12:30:21.472Z,19
2022-11-10T12:35:56.433Z,19.1
2022-11-10T12:41:31.358Z,19.3
2022-11-10T12:47:07.267Z,19.2
2022-11-10T12:52:42.498Z,19.7
2022-11-10T12:58:18.756Z,20
2022-11-10T13:03:56.964Z,20.2
2022-11-10T13:09:32.681Z,20.5
2022-11-10T13:15:16.552Z,20.4
2022-11-10T13:21:01.511Z,21.1
2022-11-10T13:26:36.774Z,21.8
2022-11-10T13:32:12.025Z,23.2
2022-11-10T13:37:52.212Z,26.4
2022-11-10T13:43:39.867Z,31.7
2022-11-10T13:49:36.999Z,33
2022-11-10T13:55:14.851Z,33.6
2022-11-10T14:00:52.038Z,34.5
2022-11-10T14:06:27.083Z,34.5
2022-11-10T14:12:03.801Z,34.7
2022-11-10T14:17:38.776Z,34.5
2022-11-10T14:23:14.723Z,34.4
2022-11-10T14:28:49.728Z,34.1
2022-11-10T14:34:26.081Z,32.1
2022-11-10T14:40:01.419Z,26.3
2022-11-10T14:45:37.081Z,25.5
2022-11-10T14:51:12.459Z,26.3
2022-11-10T14:56:51.502Z,24.6
2022-11-10T15:02:26.944Z,21.1
2022-11-10T15:08:02.651Z,19.8
2022-11-10T15:13:38.147Z,19
2022-11-10T15:19:14.714Z,18.6
2022-11-10T15:24:49.872Z,18.1
2022-11-10T15:30:25.169Z,17.8
2022-11-10T15:36:00.799Z,17.5
2022-11-10T15:41:36.549Z,17.2
2022-11-10T15:47:11.565Z,16.9
2022-11-10T15:52:46.921Z,16.8
2022-11-10T15:58:23.319Z,16.8
2022-11-10T16:04:01.667Z,16.4
2022-11-10T16:09:36.899Z,16.2
2022-11-10T16:15:11.816Z,16
2022-11-10T16:20:46.786Z,15.8
2022-11-10T16:26:23.559Z,15.7
2022-11-10T16:31:58.800Z,15.5
2022-11-10T16:37:35.132Z,15.3
2022-11-10T16:43:11.233Z,15.1
2022-11-10T16:48:46.004Z,14.9
2022-11-10T16:54:21.857Z,14.8
2022-11-10T16:59:57.405Z,14.6
2022-11-10T17:05:32.351Z,14.5
2022-11-10T17:11:07.852Z,14.3
2022-11-10T17:16:43.268Z,14.2
2022-11-10T17:22:18.405Z,14.2
2022-11-10T17:27:54.097Z,14
2022-11-10T17:33:30.471Z,13.9
2022-11-10T17:39:06.693Z,14.5
2022-11-10T17:44:42.090Z,15
2022-11-10T17:50:17.639Z,15.2
2022-11-10T17:55:52.764Z,15.3
2022-11-10T18:01:28.429Z,15.3
2022-11-10T18:07:05.420Z,15.4
2022-11-10T18:12:41.149Z,15.4
2022-11-10T18:18:16.773Z,15.4
2022-11-10T18:23:52.205Z,15.4
2022-11-10T18:29:27.158Z,15.4
2022-11-10T18:35:02.441Z,15.4
2022-11-10T18:40:37.962Z,15.4
2022-11-10T18:46:13.081Z,15.4
2022-11-10T18:51:56.672Z,15.3
2022-11-10T18:57:54.456Z,15.3
2022-11-10T19:03:29.407Z,15.3
2022-11-10T19:09:06.328Z,15.2
2022-11-10T19:14:41.400Z,15.2
2022-11-10T19:20:17.535Z,15.2
2022-11-10T19:25:52.612Z,15.2
2022-11-10T19:31:28.248Z,15.1
2022-11-10T19:37:03.165Z,15.1
2022-11-10T19:42:38.581Z,15
2022-11-10T19:48:14.223Z,15
2022-11-10T19:53:49.073Z,14.9
2022-11-10T19:59:24.676Z,14.9
2022-11-10T20:05:00.220Z,14.9
2022-11-10T20:10:35.306Z,14.8
2022-11-10T20:16:11.052Z,14.8
2022-11-10T20:21:49.348Z,14.7
2022-11-10T20:27:24.986Z,14.6
2022-11-10T20:33:00.328Z,14.5
2022-11-10T20:38:36.504Z,14.4
2022-11-10T20:44:14.863Z,14.3
2022-11-10T20:49:50.521Z,14.2
2022-11-10T20:55:51.903Z,14.2
2022-11-10T21:01:30.215Z,14.1
2022-11-10T21:07:08.621Z,14
2022-11-10T21:12:47.878Z,14
2022-11-10T21:18:23.922Z,13.9
2022-11-10T21:24:00.765Z,13.9
2022-11-10T21:29:37.775Z,13.8
2022-11-10T21:35:14.077Z,13.8
2022-11-10T21:40:51.415Z,13.7
2022-11-10T21:46:49.709Z,13.6
2022-11-10T21:52:23.765Z,13.5
2022-11-10T21:57:59.819Z,13.5
2022-11-10T22:03:35.900Z,13.5
2022-11-10T22:09:12.115Z,13.4
2022-11-10T22:14:47.665Z,13.4
2022-11-10T22:20:22.876Z,13.3
2022-11-10T22:25:58.154Z,13.2
2022-11-10T22:31:33.568Z,13.2
2022-11-10T22:37:09.341Z,13.1
2022-11-10T22:42:44.328Z,13.1
2022-11-10T22:48:41.458Z,13
2022-11-10T22:54:15.955Z,12.9
2022-11-10T22:59:50.902Z,12.9
2022-11-10T23:05:26.123Z,12.9
2022-11-10T23:11:02.409Z,12.8
2022-11-10T23:16:37.438Z,12.8
2022-11-10T23:22:13.678Z,12.7
2022-11-10T23:27:49.686Z,12.7
2022-11-10T23:33:27.607Z,12.6
2022-11-10T23:39:09.910Z,12.5
2022-11-10T23:44:45.648Z,12.5
2022-11-10T23:50:21.479Z,12.5
2022-11-10T23:55:57.227Z,12.4
